Time;durP1;ratioP1;P1;durP2;ratioP2;P2;SDS_P1;SDS_P2;PMS_P1;PMS_P2;Temp;Humidity;BMP_temperature;BMP_pressure;BME280_temperature;BME280_humidity;BME280_pressure;Samples;Min_cycle;Max_cycle;Signal;HPM_P1;HPM_P2
2021/09/23 00:01:15;;;;;;;28.40;16.03;;;10.50;99.90;;;;;;4876686;29;20229;-64
2021/09/23 00:03:55;;;;;;;28.63;16.53;;;10.50;99.90;;;;;;4879747;29;20233;-65
2021/09/23 00:06:24;;;;;;;31.67;17.23;;;10.50;99.90;;;;;;4880178;29;20218;-65
2021/09/23 00:08:55;;;;;;;27.83;16.67;;;10.50;99.90;;;;;;4874382;29;20464;-65
2021/09/23 00:11:24;;;;;;;30.80;15.97;;;10.50;99.90;;;;;;4879222;29;20213;-64
2021/09/23 00:13:52;;;;;;;27.43;16.23;;;10.50;99.90;;;;;;4878243;29;20221;-64
2021/09/23 00:16:21;;;;;;;25.73;15.80;;;10.50;99.90;;;;;;4875218;29;20291;-65
2021/09/23 00:18:51;;;;;;;26.97;15.50;;;10.40;99.90;;;;;;4875817;29;20653;-65
2021/09/23 00:21:19;;;;;;;28.07;15.67;;;10.40;99.90;;;;;;4862501;29;20253;-65
2021/09/23 00:23:49;;;;;;;26.30;15.17;;;10.40;99.90;;;;;;4880664;29;20231;-65
2021/09/23 00:26:18;;;;;;;24.53;15.93;;;10.30;99.90;;;;;;4878276;29;20286;-65
2021/09/23 00:28:47;;;;;;;27.60;15.73;;;10.40;99.90;;;;;;4866478;29;20198;-65
2021/09/23 00:31:16;;;;;;;24.87;14.73;;;10.30;99.90;;;;;;4860194;29;20205;-64
2021/09/23 00:33:44;;;;;;;22.50;15.27;;;10.30;99.90;;;;;;4877221;29;20305;-65
2021/09/23 00:36:12;;;;;;;27.23;16.10;;;10.20;99.90;;;;;;4879353;29;20710;-64
2021/09/23 00:38:41;;;;;;;26.73;16.03;;;10.10;99.90;;;;;;4873492;29;20210;-64
2021/09/23 00:41:09;;;;;;;22.60;14.67;;;10.10;99.90;;;;;;4875534;29;20242;-65
2021/09/23 00:43:39;;;;;;;27.27;16.00;;;10.00;99.90;;;;;;4877018;29;20199;-64
2021/09/23 00:46:07;;;;;;;25.77;15.57;;;10.00;99.90;;;;;;4876622;29;20685;-64
2021/09/23 00:48:36;;;;;;;25.80;16.70;;;9.90;99.90;;;;;;4875888;29;20206;-64
2021/09/23 00:51:04;;;;;;;25.73;15.93;;;9.90;99.90;;;;;;4884023;29;20234;-65
2021/09/23 00:53:33;;;;;;;29.13;16.07;;;9.80;99.90;;;;;;4875464;29;20297;-64
2021/09/23 00:56:02;;;;;;;28.00;17.47;;;9.80;99.90;;;;;;4880491;29;20285;-65
2021/09/23 00:58:31;;;;;;;31.97;16.90;;;9.80;99.90;;;;;;4857750;29;20223;-65
2021/09/23 01:01:01;;;;;;;25.67;15.87;;;9.80;99.90;;;;;;4875993;29;20630;-64
2021/09/23 01:03:30;;;;;;;24.97;15.77;;;9.80;99.90;;;;;;4857964;29;20455;-65
2021/09/23 01:05:59;;;;;;;25.80;14.80;;;9.70;99.90;;;;;;4873224;29;20717;-65
2021/09/23 01:08:28;;;;;;;26.60;15.73;;;9.70;99.90;;;;;;4874656;29;20191;-65
2021/09/23 01:10:57;;;;;;;27.70;16.00;;;9.70;99.90;;;;;;4847695;29;20304;-65
2021/09/23 01:13:25;;;;;;;30.27;15.73;;;9.60;99.90;;;;;;4870253;29;20198;-65
2021/09/23 01:15:53;;;;;;;23.57;14.73;;;9.60;99.90;;;;;;4874189;29;20237;-65
2021/09/23 01:18:24;;;;;;;25.97;15.20;;;9.50;99.90;;;;;;4874759;29;20198;-64
2021/09/23 01:20:53;;;;;;;25.73;16.00;;;9.60;99.90;;;;;;4843805;29;20234;-65
2021/09/23 01:23:23;;;;;;;30.10;16.17;;;9.60;99.90;;;;;;4874697;29;21015;-64
2021/09/23 01:25:51;;;;;;;31.87;16.60;;;9.60;99.90;;;;;;4873122;29;20211;-65
2021/09/23 01:28:20;;;;;;;29.73;16.40;;;9.60;99.90;;;;;;4874693;29;20230;-65
2021/09/23 01:30:48;;;;;;;28.37;15.77;;;9.50;99.90;;;;;;4877229;29;20290;-65
2021/09/23 01:33:16;;;;;;;30.53;16.90;;;9.40;99.90;;;;;;4876975;29;20197;-64
2021/09/23 01:35:45;;;;;;;28.57;15.43;;;9.30;99.90;;;;;;4878450;29;20234;-64
2021/09/23 01:38:14;;;;;;;25.73;16.10;;;9.30;99.90;;;;;;4874286;29;20187;-64
2021/09/23 01:40:43;;;;;;;26.87;15.90;;;9.30;99.90;;;;;;4862080;29;20209;-64
2021/09/23 01:43:11;;;;;;;27.67;16.27;;;9.30;99.90;;;;;;4865154;29;20234;-64
2021/09/23 01:45:40;;;;;;;30.07;15.43;;;9.30;99.90;;;;;;4859895;29;20515;-65
2021/09/23 01:48:08;;;;;;;23.20;15.03;;;9.20;99.90;;;;;;4875258;29;20294;-65
2021/09/23 01:50:37;;;;;;;27.00;15.23;;;9.20;99.90;;;;;;4874158;29;20869;-65
2021/09/23 01:53:05;;;;;;;26.30;15.83;;;9.20;99.90;;;;;;4860832;29;20889;-65
2021/09/23 01:55:33;;;;;;;33.17;15.83;;;9.10;99.90;;;;;;4880467;29;20230;-65
2021/09/23 01:58:03;;;;;;;25.60;15.50;;;9.10;99.90;;;;;;4871472;29;20691;-64
2021/09/23 02:00:32;;;;;;;23.37;14.80;;;9.10;99.90;;;;;;4872736;29;20261;-64
2021/09/23 02:03:00;;;;;;;27.30;15.60;;;9.10;99.90;;;;;;4855122;29;20237;-64
2021/09/23 02:05:29;;;;;;;23.97;15.07;;;9.00;99.90;;;;;;4861706;29;20233;-64
2021/09/23 02:07:57;;;;;;;26.10;14.87;;;9.00;99.90;;;;;;4875339;29;20296;-65
2021/09/23 02:10:25;;;;;;;26.90;15.73;;;8.90;99.90;;;;;;4857673;29;20234;-65
2021/09/23 02:12:55;;;;;;;26.50;15.90;;;8.90;99.90;;;;;;4878013;29;20198;-65
2021/09/23 02:15:39;;;;;;;28.87;15.57;;;8.90;99.90;;;;;;4871646;29;20258;-65
2021/09/23 02:18:08;;;;;;;27.73;15.17;;;8.80;99.90;;;;;;4873813;29;20243;-64
2021/09/23 02:20:37;;;;;;;26.27;15.50;;;8.80;99.90;;;;;;4872734;29;20207;-65
2021/09/23 02:23:05;;;;;;;26.03;15.83;;;8.80;99.90;;;;;;4871802;29;20627;-64
2021/09/23 02:25:34;;;;;;;26.67;15.27;;;8.80;99.90;;;;;;4875729;29;20263;-64
2021/09/23 02:28:03;;;;;;;27.93;15.40;;;8.80;99.90;;;;;;4854844;29;20281;-64
2021/09/23 02:30:31;;;;;;;29.90;16.07;;;8.90;99.90;;;;;;4878454;29;20204;-64
2021/09/23 02:33:01;;;;;;;27.37;16.07;;;8.90;99.90;;;;;;4878019;29;20258;-64
2021/09/23 02:35:30;;;;;;;27.47;15.50;;;8.90;99.90;;;;;;4871146;29;20198;-64
2021/09/23 02:37:58;;;;;;;25.83;15.43;;;8.90;99.90;;;;;;4872981;29;20297;-65
2021/09/23 02:40:27;;;;;;;24.00;14.97;;;8.80;99.90;;;;;;4874053;29;20305;-64
2021/09/23 02:42:55;;;;;;;27.97;16.33;;;8.70;99.90;;;;;;4875863;29;20204;-64
2021/09/23 02:45:24;;;;;;;24.40;14.83;;;8.60;99.90;;;;;;4872671;29;20187;-65
2021/09/23 02:47:52;;;;;;;25.00;15.67;;;8.70;99.90;;;;;;4877147;29;20211;-65
2021/09/23 02:50:22;;;;;;;28.07;15.67;;;8.70;99.90;;;;;;4872444;29;20776;-64
2021/09/23 02:52:50;;;;;;;28.43;15.63;;;8.70;99.90;;;;;;4859781;29;20195;-64
2021/09/23 02:55:19;;;;;;;24.17;15.50;;;8.70;99.90;;;;;;4877560;29;20230;-64
2021/09/23 02:57:47;;;;;;;32.13;16.63;;;8.70;99.90;;;;;;4877207;29;20195;-65
2021/09/23 03:00:16;;;;;;;26.87;15.60;;;8.70;99.90;;;;;;4874376;29;20301;-64
2021/09/23 03:02:44;;;;;;;29.53;16.50;;;8.80;99.90;;;;;;4880631;29;20230;-64
2021/09/23 03:05:13;;;;;;;33.07;18.10;;;8.80;99.90;;;;;;4872877;29;20294;-65
2021/09/23 03:07:43;;;;;;;31.27;18.13;;;8.80;99.90;;;;;;4878668;29;20686;-64
2021/09/23 03:10:12;;;;;;;29.27;17.63;;;8.80;99.90;;;;;;4860008;29;20342;-64
2021/09/23 03:12:41;;;;;;;32.57;18.10;;;8.70;99.90;;;;;;4875822;29;20203;-64
2021/09/23 03:15:10;;;;;;;35.07;19.23;;;8.60;99.90;;;;;;4872915;29;20569;-65
2021/09/23 03:17:38;;;;;;;32.17;19.23;;;8.70;99.90;;;;;;4872579;29;20229;-65
2021/09/23 03:20:08;;;;;;;31.07;18.60;;;8.80;99.90;;;;;;4874296;29;20203;-65
2021/09/23 03:22:36;;;;;;;31.30;18.10;;;8.90;99.90;;;;;;4871903;29;20214;-65
2021/09/23 03:25:07;;;;;;;37.23;20.37;;;8.90;99.90;;;;;;4878368;29;20294;-65
2021/09/23 03:27:39;;;;;;;36.83;19.27;;;9.00;99.90;;;;;;4870525;29;20257;-65
2021/09/23 03:30:08;;;;;;;37.60;20.33;;;9.10;99.90;;;;;;4871242;29;20226;-65
2021/09/23 03:32:36;;;;;;;39.67;20.73;;;9.20;99.90;;;;;;4858025;29;20234;-64
2021/09/23 03:35:05;;;;;;;41.43;21.17;;;9.30;99.90;;;;;;4855708;29;20195;-64
2021/09/23 03:37:34;;;;;;;38.20;22.03;;;9.30;99.90;;;;;;4856827;29;20750;-65
2021/09/23 03:40:04;;;;;;;39.17;21.57;;;9.40;99.90;;;;;;4856443;29;20730;-64
2021/09/23 03:42:34;;;;;;;43.13;21.70;;;9.40;99.90;;;;;;4874112;29;20631;-65
2021/09/23 03:45:02;;;;;;;40.47;22.03;;;9.30;99.90;;;;;;4873727;29;20259;-64
2021/09/23 03:47:31;;;;;;;41.13;21.17;;;9.20;99.90;;;;;;4873320;29;20241;-64
2021/09/23 03:49:59;;;;;;;42.77;22.23;;;9.20;99.90;;;;;;4874994;29;20258;-65
2021/09/23 03:52:27;;;;;;;37.63;21.43;;;9.10;99.90;;;;;;4862053;29;20199;-64
2021/09/23 03:54:56;;;;;;;42.17;22.90;;;9.10;99.90;;;;;;4875646;29;20198;-65
2021/09/23 03:57:25;;;;;;;43.83;23.20;;;9.10;99.90;;;;;;4878410;29;20245;-64
2021/09/23 03:59:55;;;;;;;44.17;22.80;;;9.00;99.90;;;;;;4862557;29;20667;-64
2021/09/23 04:02:24;;;;;;;46.70;24.67;;;9.10;99.90;;;;;;4876868;29;20679;-64
2021/09/23 04:04:53;;;;;;;48.17;24.63;;;9.20;99.90;;;;;;4876257;29;20206;-65
2021/09/23 04:07:21;;;;;;;45.03;24.57;;;9.20;99.90;;;;;;4879601;29;20699;-64
2021/09/23 04:09:50;;;;;;;48.80;24.50;;;9.30;99.90;;;;;;4881065;29;20210;-65
2021/09/23 04:12:18;;;;;;;45.17;23.63;;;9.30;99.90;;;;;;4874638;29;20286;-64
2021/09/23 04:14:47;;;;;;;47.37;22.67;;;9.20;99.90;;;;;;4872738;29;20215;-64
2021/09/23 04:17:23;;;;;;;44.90;24.23;;;9.20;99.90;;;;;;4861081;29;20202;-63
2021/09/23 04:19:52;;;;;;;52.43;24.33;;;9.10;99.90;;;;;;4874948;29;20719;-64
2021/09/23 04:22:21;;;;;;;49.17;25.40;;;9.10;99.90;;;;;;4863828;29;20255;-64
2021/09/23 04:24:50;;;;;;;45.23;24.53;;;9.10;99.90;;;;;;4875498;29;20670;-64
2021/09/23 04:27:19;;;;;;;42.10;23.50;;;9.10;99.90;;;;;;4876314;29;20690;-64
2021/09/23 04:29:48;;;;;;;47.47;24.37;;;9.10;99.90;;;;;;4878227;29;20638;-65
2021/09/23 04:32:16;;;;;;;42.40;24.17;;;9.00;99.90;;;;;;4858870;29;20689;-64
2021/09/23 04:34:46;;;;;;;49.57;22.97;;;9.00;99.90;;;;;;4876068;29;20198;-64
2021/09/23 04:37:15;;;;;;;44.73;23.63;;;8.90;99.90;;;;;;4859974;29;20683;-65
2021/09/23 04:39:42;;;;;;;42.10;22.47;;;8.90;99.90;;;;;;4873903;29;20738;-64
2021/09/23 04:42:11;;;;;;;39.97;21.67;;;8.90;99.90;;;;;;4872042;29;20330;-64
2021/09/23 04:44:39;;;;;;;37.30;21.80;;;8.90;99.90;;;;;;4869520;29;20211;-64
2021/09/23 04:47:08;;;;;;;51.33;22.57;;;8.90;99.90;;;;;;4860670;29;20293;-64
2021/09/23 04:49:36;;;;;;;52.80;23.87;;;8.80;99.90;;;;;;4870627;29;20225;-64
2021/09/23 04:52:06;;;;;;;45.73;23.93;;;8.80;99.90;;;;;;4878955;29;20206;-64
2021/09/23 04:54:35;;;;;;;44.07;24.20;;;8.80;99.90;;;;;;4867836;29;20227;-64
2021/09/23 04:57:04;;;;;;;50.47;24.20;;;8.80;99.90;;;;;;4878146;29;20246;-64
2021/09/23 04:59:37;;;;;;;44.27;25.43;;;8.80;99.90;;;;;;4876146;29;20738;-64
2021/09/23 05:02:05;;;;;;;51.10;25.77;;;8.80;99.90;;;;;;4872702;29;20251;-64
2021/09/23 05:04:34;;;;;;;58.23;27.40;;;8.90;99.90;;;;;;4861886;29;20199;-64
2021/09/23 05:07:04;;;;;;;54.63;27.03;;;8.90;99.90;;;;;;4858012;29;20252;-64
2021/09/23 05:09:33;;;;;;;56.10;27.00;;;8.90;99.90;;;;;;4874960;29;20207;-64
2021/09/23 05:12:03;;;;;;;49.20;25.70;;;8.90;99.90;;;;;;4875946;29;20236;-65
2021/09/23 05:14:32;;;;;;;54.03;25.60;;;8.90;99.90;;;;;;4875940;29;20253;-64
2021/09/23 05:17:01;;;;;;;52.33;26.27;;;9.00;99.90;;;;;;4875300;29;20290;-64
2021/09/23 05:19:29;;;;;;;49.20;25.50;;;9.10;99.90;;;;;;4874812;29;20198;-64
2021/09/23 05:21:58;;;;;;;51.27;25.53;;;9.30;99.90;;;;;;4873091;29;20619;-64
2021/09/23 05:24:26;;;;;;;45.13;24.33;;;9.40;99.90;;;;;;4874076;29;20215;-63
2021/09/23 05:26:56;;;;;;;48.83;24.90;;;9.50;99.90;;;;;;4876180;29;20296;-64
2021/09/23 05:29:24;;;;;;;48.30;26.17;;;9.60;99.90;;;;;;4875785;29;20277;-64
2021/09/23 05:31:53;;;;;;;50.97;25.53;;;9.70;99.90;;;;;;4857183;29;20206;-64
2021/09/23 05:34:22;;;;;;;54.53;27.00;;;9.80;99.90;;;;;;4873917;29;20198;-64
2021/09/23 05:36:51;;;;;;;52.87;26.33;;;9.90;99.90;;;;;;4877804;29;20203;-64
2021/09/23 05:39:20;;;;;;;60.70;27.57;;;9.90;99.90;;;;;;4875032;29;20658;-64
2021/09/23 05:41:49;;;;;;;57.23;29.70;;;9.90;99.90;;;;;;4858230;29;20246;-64
2021/09/23 05:44:23;;;;;;;58.17;29.53;;;10.00;99.90;;;;;;4887340;29;20227;-64
2021/09/23 05:46:51;;;;;;;60.93;30.13;;;10.00;99.90;;;;;;4877839;29;20408;-64
2021/09/23 05:49:20;;;;;;;57.67;30.60;;;10.00;99.90;;;;;;4873946;29;20698;-64
2021/09/23 05:51:49;;;;;;;54.07;29.63;;;10.10;99.90;;;;;;4875038;29;20244;-64
2021/09/23 05:54:17;;;;;;;60.97;31.20;;;10.00;99.90;;;;;;4874444;29;20278;-64
2021/09/23 05:56:46;;;;;;;60.70;31.43;;;10.10;99.90;;;;;;4874571;29;20264;-64
2021/09/23 05:59:16;;;;;;;65.20;31.03;;;10.20;99.90;;;;;;4869674;29;20191;-64
2021/09/23 06:01:46;;;;;;;65.20;32.33;;;10.30;99.90;;;;;;4875505;29;20239;-64
2021/09/23 06:04:15;;;;;;;62.63;32.73;;;10.30;99.90;;;;;;4874791;29;20993;-64
2021/09/23 06:06:44;;;;;;;67.23;33.10;;;10.30;99.90;;;;;;4875560;29;20617;-64
2021/09/23 06:09:12;;;;;;;67.13;34.23;;;10.40;99.90;;;;;;4881881;29;20290;-64
2021/09/23 06:11:41;;;;;;;67.53;33.67;;;10.40;99.90;;;;;;4885357;29;20320;-64
2021/09/23 06:14:09;;;;;;;73.03;33.90;;;10.40;99.90;;;;;;4894240;29;20281;-64
2021/09/23 06:16:38;;;;;;;74.33;35.10;;;10.50;99.90;;;;;;4878990;29;20266;-64
2021/09/23 06:19:08;;;;;;;70.77;35.37;;;10.60;99.90;;;;;;4880463;29;20578;-64
2021/09/23 06:21:36;;;;;;;72.93;35.70;;;10.70;99.90;;;;;;4886458;29;20314;-64
2021/09/23 06:24:06;;;;;;;71.60;35.90;;;10.70;99.90;;;;;;4862231;29;20869;-65
2021/09/23 06:26:34;;;;;;;71.57;35.27;;;10.70;99.90;;;;;;4874433;29;20230;-64
2021/09/23 06:29:03;;;;;;;69.00;35.50;;;10.80;99.90;;;;;;4868178;29;20310;-64
2021/09/23 06:31:32;;;;;;;71.77;36.67;;;10.80;99.90;;;;;;4887447;29;20267;-64
2021/09/23 06:34:01;;;;;;;67.50;35.50;;;10.90;99.90;;;;;;4877636;29;20205;-63
2021/09/23 06:36:33;;;;;;;70.67;35.77;;;11.00;99.90;;;;;;4857657;29;20431;-63
2021/09/23 06:39:02;;;;;;;65.30;34.07;;;11.00;99.90;;;;;;4860195;29;20194;-64
2021/09/23 06:41:31;;;;;;;65.60;34.33;;;11.10;99.90;;;;;;4872424;29;20239;-64
2021/09/23 06:44:02;;;;;;;63.83;34.30;;;11.10;99.90;;;;;;4874473;29;20543;-64
2021/09/23 06:46:31;;;;;;;67.67;34.90;;;11.20;99.90;;;;;;4875328;29;20734;-64
2021/09/23 06:49:00;;;;;;;69.47;34.53;;;11.30;99.90;;;;;;4878794;29;20219;-64
2021/09/23 06:51:30;;;;;;;64.27;34.47;;;11.30;99.90;;;;;;4876125;29;20199;-65
2021/09/23 06:54:07;;;;;;;61.90;34.40;;;11.40;99.90;;;;;;4867663;29;20205;-65
2021/09/23 06:56:36;;;;;;;64.93;34.13;;;11.50;99.90;;;;;;4868141;29;20195;-64
2021/09/23 06:59:04;;;;;;;66.53;34.80;;;11.60;99.90;;;;;;4872979;29;20203;-65
2021/09/23 07:01:34;;;;;;;71.37;36.00;;;11.80;99.90;;;;;;4871548;29;20242;-64
2021/09/23 07:04:03;;;;;;;70.70;35.33;;;12.00;99.90;;;;;;4872903;29;20289;-65
2021/09/23 07:06:36;;;;;;;62.47;34.63;;;12.20;99.90;;;;;;4870971;29;21237;-64
2021/09/23 07:09:04;;;;;;;59.43;32.00;;;12.40;99.90;;;;;;4872297;29;20723;-64
2021/09/23 07:11:33;;;;;;;53.27;31.03;;;12.50;99.90;;;;;;4872977;29;20241;-64
2021/09/23 07:14:02;;;;;;;59.23;31.47;;;12.60;99.90;;;;;;4875165;29;20215;-65
2021/09/23 07:16:30;;;;;;;59.97;31.87;;;12.80;99.90;;;;;;4870736;29;20263;-64
2021/09/23 07:18:59;;;;;;;58.60;33.03;;;12.90;99.90;;;;;;4854802;29;20406;-65
2021/09/23 07:21:37;;;;;;;58.40;31.37;;;13.00;99.90;;;;;;4872714;29;20210;-64
2021/09/23 07:24:06;;;;;;;55.40;33.10;;;13.20;99.90;;;;;;4859116;29;20203;-64
2021/09/23 07:26:37;;;;;;;55.00;31.43;;;13.40;99.90;;;;;;4860931;29;20650;-64
2021/09/23 07:29:05;;;;;;;55.37;31.20;;;13.50;99.90;;;;;;4882099;29;20214;-64
2021/09/23 07:31:34;;;;;;;55.00;31.60;;;13.60;99.90;;;;;;4878320;29;20251;-64
2021/09/23 07:34:03;;;;;;;53.83;31.40;;;13.70;99.90;;;;;;4874997;29;20534;-65
2021/09/23 07:36:31;;;;;;;56.80;32.50;;;13.80;99.90;;;;;;4873341;29;20302;-64
2021/09/23 07:39:04;;;;;;;51.53;31.60;;;13.80;99.90;;;;;;4876396;29;20293;-65
2021/09/23 07:41:32;;;;;;;51.23;30.77;;;14.00;99.90;;;;;;4875996;29;20239;-64
2021/09/23 07:44:00;;;;;;;51.87;31.03;;;14.20;99.90;;;;;;4878491;29;20612;-65
2021/09/23 07:46:29;;;;;;;53.70;30.13;;;14.40;99.90;;;;;;4874935;29;20281;-65
2021/09/23 07:48:57;;;;;;;53.47;30.70;;;14.50;99.90;;;;;;4874070;29;20207;-65
2021/09/23 07:51:26;;;;;;;55.80;31.63;;;14.60;99.90;;;;;;4876973;29;20230;-65
2021/09/23 07:53:54;;;;;;;59.70;30.53;;;14.80;99.90;;;;;;4875824;29;20270;-65
2021/09/23 07:56:24;;;;;;;49.50;29.13;;;14.90;99.90;;;;;;4875382;29;20718;-65
2021/09/23 07:58:53;;;;;;;53.40;30.60;;;15.00;99.90;;;;;;4874947;29;20647;-65
2021/09/23 08:01:21;;;;;;;50.80;30.27;;;15.10;99.90;;;;;;4876364;29;20235;-65
2021/09/23 08:03:53;;;;;;;51.33;30.50;;;15.20;99.90;;;;;;4874545;29;20195;-65
2021/09/23 08:06:22;;;;;;;50.90;29.87;;;15.30;99.90;;;;;;4882820;29;20199;-65
2021/09/23 08:08:50;;;;;;;47.20;29.50;;;15.40;99.90;;;;;;4860315;29;20455;-64
2021/09/23 08:11:19;;;;;;;48.30;29.23;;;15.60;99.90;;;;;;4877432;29;20689;-64
2021/09/23 08:13:49;;;;;;;45.87;27.87;;;15.70;99.90;;;;;;4881089;29;20266;-65
2021/09/23 08:16:17;;;;;;;47.63;28.17;;;15.80;99.90;;;;;;4880170;29;20355;-65
2021/09/23 08:18:46;;;;;;;49.83;28.80;;;15.80;99.90;;;;;;4878572;29;20202;-65
2021/09/23 08:21:15;;;;;;;46.73;27.30;;;16.00;99.90;;;;;;4876047;29;20863;-65
2021/09/23 08:23:43;;;;;;;45.87;28.47;;;16.00;99.90;;;;;;4876592;29;20360;-64
2021/09/23 08:26:23;;;;;;;49.80;28.07;;;16.20;99.90;;;;;;4878725;29;20668;-65
2021/09/23 08:28:53;;;;;;;48.73;27.30;;;16.10;99.90;;;;;;4879282;29;20198;-65
2021/09/23 08:31:22;;;;;;;41.83;26.67;;;16.10;99.90;;;;;;4874738;29;20661;-65
2021/09/23 08:33:51;;;;;;;49.03;28.40;;;16.00;99.90;;;;;;4876682;29;20237;-65
2021/09/23 08:36:20;;;;;;;48.63;28.80;;;15.90;99.90;;;;;;4874174;29;20199;-65
2021/09/23 08:38:50;;;;;;;43.57;27.40;;;15.90;99.90;;;;;;4875231;29;20298;-65
2021/09/23 08:41:18;;;;;;;47.27;28.37;;;16.00;99.90;;;;;;4860356;29;20725;-65
2021/09/23 08:43:47;;;;;;;48.67;26.97;;;16.20;99.90;;;;;;4877650;29;20207;-65
2021/09/23 08:46:17;;;;;;;43.67;27.43;;;16.30;99.90;;;;;;4863922;29;20260;-65
2021/09/23 08:48:48;;;;;;;43.83;26.13;;;16.50;99.90;;;;;;4877142;29;20199;-65
2021/09/23 08:51:18;;;;;;;42.27;26.73;;;16.50;99.90;;;;;;4876476;29;20303;-64
2021/09/23 08:53:46;;;;;;;38.73;25.40;;;16.70;99.90;;;;;;4876446;29;20226;-65
2021/09/23 08:56:15;;;;;;;42.53;25.93;;;16.80;99.90;;;;;;4876800;29;20206;-65
2021/09/23 08:58:43;;;;;;;40.23;25.53;;;16.90;99.90;;;;;;4877139;29;20746;-65
2021/09/23 09:01:16;;;;;;;39.47;24.53;;;17.20;99.90;;;;;;4878872;29;20254;-65
2021/09/23 09:03:57;;;;;;;37.70;23.70;;;17.20;99.90;;;;;;4877731;29;20268;-65
2021/09/23 09:06:26;;;;;;;36.63;22.57;;;17.40;99.90;;;;;;4865460;29;20659;-65
2021/09/23 09:08:55;;;;;;;32.40;22.00;;;17.60;99.90;;;;;;4880198;29;20299;-65
2021/09/23 09:11:24;;;;;;;29.50;18.87;;;17.70;99.90;;;;;;4878253;29;20653;-65
2021/09/23 09:13:53;;;;;;;29.63;19.50;;;17.80;99.90;;;;;;4859946;29;20285;-65
2021/09/23 09:16:24;;;;;;;28.23;16.33;;;17.60;99.90;;;;;;4873209;29;20221;-65
2021/09/23 09:18:55;;;;;;;22.70;16.33;;;17.50;99.90;;;;;;4876483;29;20205;-65
2021/09/23 09:21:26;;;;;;;32.17;17.80;;;17.50;99.90;;;;;;4874542;29;20209;-65
2021/09/23 09:23:57;;;;;;;25.00;12.60;;;17.60;99.90;;;;;;4871512;29;20203;-66
2021/09/23 09:26:31;;;;;;;26.33;13.43;;;17.60;99.90;;;;;;4869717;29;20207;-65
2021/09/23 09:29:01;;;;;;;21.67;11.03;;;17.70;99.90;;;;;;4872421;29;20263;-65
2021/09/23 09:31:30;;;;;;;15.70;10.93;;;17.70;99.90;;;;;;4876137;29;20232;-66
2021/09/23 09:34:02;;;;;;;20.20;10.93;;;17.80;99.90;;;;;;4875313;29;20199;-64
2021/09/23 09:36:33;;;;;;;17.90;11.80;;;18.00;99.90;;;;;;4874891;29;20248;-65
2021/09/23 09:39:05;;;;;;;23.03;12.37;;;18.00;99.90;;;;;;4875856;29;20231;-65
2021/09/23 09:41:37;;;;;;;21.13;11.77;;;18.00;99.90;;;;;;4876955;29;20700;-68
2021/09/23 09:44:08;;;;;;;21.50;12.57;;;18.00;99.90;;;;;;4859897;29;20710;-66
2021/09/23 09:46:40;;;;;;;20.50;13.10;;;18.00;99.90;;;;;;4876350;29;20248;-65
2021/09/23 09:49:11;;;;;;;22.60;12.73;;;17.90;99.90;;;;;;4872996;29;20571;-65
2021/09/23 09:51:43;;;;;;;46.53;15.30;;;17.90;99.90;;;;;;4875566;29;20242;-65
2021/09/23 09:54:13;;;;;;;25.97;13.50;;;18.00;99.90;;;;;;4878489;29;20199;-66
2021/09/23 09:56:44;;;;;;;26.27;13.23;;;18.10;99.90;;;;;;4876764;29;20231;-65
2021/09/23 09:59:15;;;;;;;21.40;13.73;;;18.10;99.90;;;;;;4874747;29;20210;-65
2021/09/23 10:01:45;;;;;;;30.97;15.23;;;18.00;99.90;;;;;;4871507;29;20235;-66
2021/09/23 10:04:16;;;;;;;22.37;13.97;;;18.10;99.90;;;;;;4873997;29;20191;-64
2021/09/23 10:06:46;;;;;;;22.60;14.33;;;18.50;99.90;;;;;;4873662;29;20245;-66
2021/09/23 10:09:17;;;;;;;25.17;15.20;;;18.60;99.90;;;;;;4857580;29;20698;-66
2021/09/23 10:11:48;;;;;;;22.47;14.17;;;18.50;99.90;;;;;;4873237;29;20230;-67
2021/09/23 10:14:19;;;;;;;22.60;14.40;;;18.60;99.90;;;;;;4857289;29;20298;-65
2021/09/23 10:16:48;;;;;;;18.40;13.03;;;18.70;99.90;;;;;;4876377;29;20226;-66
2021/09/23 10:19:18;;;;;;;21.53;13.70;;;18.70;99.90;;;;;;4875590;29;20686;-64
2021/09/23 10:21:47;;;;;;;15.00;10.30;;;18.80;99.90;;;;;;4876033;29;20202;-63
2021/09/23 10:24:17;;;;;;;12.33;9.43;;;18.80;99.90;;;;;;4874273;29;20195;-65
2021/09/23 10:26:48;;;;;;;14.07;8.97;;;19.00;99.90;;;;;;4875593;29;20668;-66
2021/09/23 10:29:17;;;;;;;22.80;9.80;;;19.10;99.90;;;;;;4872239;29;20226;-67
2021/09/23 10:31:46;;;;;;;12.43;8.23;;;19.00;99.90;;;;;;4876148;29;20637;-66
2021/09/23 10:34:17;;;;;;;12.17;7.67;;;18.70;99.90;;;;;;4874834;29;20195;-66
2021/09/23 10:36:47;;;;;;;10.73;7.33;;;18.60;99.90;;;;;;4877765;29;20205;-66
2021/09/23 10:39:18;;;;;;;13.13;8.43;;;18.80;99.90;;;;;;4868478;29;20203;-66
2021/09/23 10:41:48;;;;;;;11.50;9.00;;;18.90;99.90;;;;;;4871777;29;20702;-67
2021/09/23 10:44:16;;;;;;;14.73;9.90;;;19.10;99.90;;;;;;4876169;29;20210;-65
2021/09/23 10:46:45;;;;;;;26.87;10.00;;;19.00;99.90;;;;;;4874413;29;20230;-67
2021/09/23 10:49:14;;;;;;;14.53;9.77;;;19.00;99.90;;;;;;4874942;29;20230;-66
2021/09/23 10:51:46;;;;;;;16.93;10.43;;;19.20;99.90;;;;;;4872777;29;20219;-65
2021/09/23 10:54:22;;;;;;;18.33;10.30;;;19.50;99.90;;;;;;4874369;29;20262;-67
2021/09/23 10:56:51;;;;;;;15.47;10.20;;;19.60;99.90;;;;;;4870324;29;20255;-66
2021/09/23 10:59:22;;;;;;;14.37;9.03;;;19.50;99.90;;;;;;4873286;29;20627;-66
2021/09/23 11:01:50;;;;;;;12.43;8.57;;;19.30;99.90;;;;;;4872995;29;20696;-66
2021/09/23 11:04:32;;;;;;;10.07;7.70;;;19.40;99.90;;;;;;4875332;29;20202;-66
2021/09/23 11:07:03;;;;;;;11.87;6.17;;;19.60;99.90;;;;;;4872236;29;20203;-66
2021/09/23 11:09:32;;;;;;;8.37;6.10;;;19.60;99.90;;;;;;4876315;29;20307;-67
2021/09/23 11:12:03;;;;;;;7.77;6.10;;;19.50;99.90;;;;;;4875372;29;20219;-65
2021/09/23 11:14:32;;;;;;;7.73;5.97;;;19.40;99.90;;;;;;4875779;29;20210;-64
2021/09/23 11:17:02;;;;;;;7.77;5.40;;;19.30;99.90;;;;;;4880190;29;20258;-67
2021/09/23 11:19:33;;;;;;;7.30;5.50;;;19.50;99.90;;;;;;4881317;29;20213;-65
2021/09/23 11:22:05;;;;;;;9.80;5.87;;;19.70;99.90;;;;;;4870270;29;20322;-65
2021/09/23 11:24:34;;;;;;;6.00;5.30;;;19.50;99.90;;;;;;4867662;29;20201;-66
2021/09/23 11:27:04;;;;;;;5.60;5.10;;;19.50;99.90;;;;;;4857796;29;20255;-66
2021/09/23 11:29:33;;;;;;;6.20;4.57;;;19.70;99.90;;;;;;4872298;29;20205;-66
2021/09/23 11:32:01;;;;;;;5.73;4.67;;;19.90;99.90;;;;;;4853147;29;20223;-65
2021/09/23 11:34:31;;;;;;;5.50;4.53;;;20.10;99.90;;;;;;4873860;29;20354;-67
2021/09/23 11:37:01;;;;;;;4.90;4.43;;;20.20;99.90;;;;;;4879636;29;20285;-65
2021/09/23 11:39:31;;;;;;;11.20;4.73;;;20.20;99.90;;;;;;4875383;29;20834;-66
2021/09/23 11:42:10;;;;;;;5.67;5.00;;;20.20;99.90;;;;;;4850877;29;20287;-65
2021/09/23 11:44:40;;;;;;;5.43;4.87;;;20.10;99.90;;;;;;4853027;29;20271;-65
2021/09/23 11:47:23;;;;;;;5.47;4.87;;;20.10;99.90;;;;;;4851719;29;20215;-65
2021/09/23 11:49:55;;;;;;;5.93;4.97;;;19.90;99.90;;;;;;4855783;29;20214;-66
2021/09/23 11:52:32;;;;;;;5.90;4.80;;;19.70;99.90;;;;;;4857278;29;21071;-66
2021/09/23 11:55:03;;;;;;;4.00;3.70;;;19.60;99.90;;;;;;4850541;29;20664;-64
2021/09/23 11:57:32;;;;;;;5.00;4.20;;;19.70;99.90;;;;;;4863484;29;20680;-66
2021/09/23 12:00:02;;;;;;;3.93;3.53;;;19.90;99.90;;;;;;4851259;29;20207;-65
2021/09/23 12:02:33;;;;;;;4.30;3.90;;;20.00;99.90;;;;;;4857930;29;20227;-66
2021/09/23 12:05:02;;;;;;;5.07;4.60;;;20.00;99.90;;;;;;4853525;29;20207;-66
2021/09/23 12:07:43;;;;;;;4.03;3.60;;;19.90;99.90;;;;;;4863964;29;20200;-65
2021/09/23 12:10:14;;;;;;;4.10;3.70;;;19.90;99.90;;;;;;4853531;29;20199;-66
2021/09/23 12:12:43;;;;;;;4.30;3.07;;;19.90;99.90;;;;;;4856032;29;20207;-65
2021/09/23 12:15:11;;;;;;;6.80;4.03;;;20.00;99.90;;;;;;4855425;29;20219;-64
2021/09/23 12:17:56;;;;;;;3.60;3.40;;;20.00;99.90;;;;;;4857654;29;20255;-66
2021/09/23 12:20:46;;;;;;;4.53;3.30;;;19.90;99.90;;;;;;4857960;29;20234;-65
2021/09/23 12:23:33;;;;;;;5.37;3.50;;;20.10;99.90;;;;;;4841385;29;20215;-65
2021/09/23 12:26:14;;;;;;;3.17;2.87;;;20.30;99.90;;;;;;4857245;29;20232;-66
2021/09/23 12:28:46;;;;;;;2.90;2.70;;;20.40;99.90;;;;;;4860499;29;20633;-66
2021/09/23 12:31:16;;;;;;;3.57;2.90;;;20.60;99.90;;;;;;4858413;29;20364;-66
2021/09/23 12:33:54;;;;;;;4.60;2.83;;;20.80;99.90;;;;;;4854384;29;20203;-65
2021/09/23 12:36:28;;;;;;;3.20;2.80;;;20.80;99.90;;;;;;4859264;29;20263;-66
2021/09/23 12:39:11;;;;;;;2.87;2.63;;;20.90;99.90;;;;;;4856246;29;20291;-66
2021/09/23 12:41:42;;;;;;;7.63;2.83;;;21.00;99.90;;;;;;4868508;29;20295;-66
2021/09/23 12:44:11;;;;;;;5.60;2.70;;;21.10;99.90;;;;;;4877035;29;20262;-66
2021/09/23 12:46:39;;;;;;;3.57;2.80;;;21.20;99.90;;;;;;4881522;29;20207;-66